Time;durP1;ratioP1;P1;durP2;ratioP2;P2;SDS_P1;SDS_P2;PMS_P1;PMS_P2;Temp;Humidity;BMP_temperature;BMP_pressure;BME280_temperature;BME280_humidity;BME280_pressure;Samples;Min_cycle;Max_cycle;Signal;HPM_P1;HPM_P2
2022/11/13 00:00:08;;;;;;;31.30;17.70;;;;;;;4.67;100.00;102502.22;4948993;29;20110;-77
2022/11/13 00:02:52;;;;;;;34.00;18.20;;;;;;;4.63;100.00;102501.50;4949265;28;20568;-77
2022/11/13 00:05:36;;;;;;;32.70;19.38;;;;;;;4.71;100.00;102498.47;4954790;28;20100;-77
2022/11/13 00:08:20;;;;;;;37.28;18.92;;;;;;;4.72;100.00;102494.03;4949070;28;20102;-79
2022/11/13 00:11:10;;;;;;;38.50;21.15;;;;;;;4.71;100.00;102494.97;4951390;28;20050;-77
2022/11/13 00:13:54;;;;;;;39.47;20.50;;;;;;;4.71;100.00;102497.63;4955401;28;20078;-78
2022/11/13 00:16:38;;;;;;;40.53;21.95;;;;;;;4.88;100.00;102500.22;4948903;29;20050;-77
2022/11/13 00:19:22;;;;;;;36.40;20.95;;;;;;;4.82;100.00;102492.59;4949023;28;20543;-77
2022/11/13 00:22:06;;;;;;;37.30;20.60;;;;;;;4.69;100.00;102483.63;4948387;29;20130;-77
2022/11/13 00:24:50;;;;;;;36.63;19.73;;;;;;;4.56;100.00;102473.66;4950003;29;20054;-79
2022/11/13 00:27:34;;;;;;;35.28;21.42;;;;;;;4.42;100.00;102461.19;4949643;29;20042;-77
2022/11/13 00:30:18;;;;;;;32.80;18.52;;;;;;;4.34;100.00;102465.16;4949764;29;20042;-78
2022/11/13 00:33:02;;;;;;;32.63;18.77;;;;;;;4.27;100.00;102464.63;4955205;28;20045;-77
2022/11/13 00:35:46;;;;;;;38.45;18.73;;;;;;;4.16;100.00;102453.75;4948673;29;20049;-78
2022/11/13 00:38:30;;;;;;;42.00;22.27;;;;;;;4.39;100.00;102473.72;4951172;28;20086;-78
2022/11/13 00:41:14;;;;;;;41.25;21.50;;;;;;;4.47;100.00;102475.94;4948301;29;20046;-77
2022/11/13 00:43:59;;;;;;;42.05;21.92;;;;;;;4.44;100.00;102463.75;4948608;28;20094;-77
2022/11/13 00:46:43;;;;;;;40.20;21.50;;;;;;;4.44;100.00;102479.63;4947959;29;20046;-77
2022/11/13 00:49:27;;;;;;;44.13;24.10;;;;;;;4.48;100.00;102475.88;4951190;28;20649;-77
2022/11/13 00:52:11;;;;;;;45.15;22.67;;;;;;;4.52;100.00;102482.72;4951054;28;20050;-78
2022/11/13 00:54:55;;;;;;;46.70;24.48;;;;;;;4.51;100.00;102488.94;4948200;28;20809;-78
2022/11/13 00:57:39;;;;;;;43.20;23.98;;;;;;;4.67;100.00;102485.50;4949187;29;20519;-77
2022/11/13 01:00:24;;;;;;;42.42;25.27;;;;;;;4.72;100.00;102483.44;4948221;29;20054;-78
2022/11/13 01:03:08;;;;;;;41.05;22.77;;;;;;;4.69;100.00;102478.34;4950349;28;20122;-77
2022/11/13 01:05:51;;;;;;;46.53;23.13;;;;;;;4.63;100.00;102474.19;4949681;28;20109;-77
2022/11/13 01:08:35;;;;;;;43.28;23.27;;;;;;;4.74;100.00;102477.13;4948947;29;20413;-78
2022/11/13 01:11:23;;;;;;;43.75;23.40;;;;;;;4.80;100.00;102482.13;4947926;28;20046;-78
2022/11/13 01:14:08;;;;;;;42.97;23.48;;;;;;;4.79;100.00;102484.84;4947482;28;20155;-78
2022/11/13 01:16:52;;;;;;;48.78;25.52;;;;;;;4.85;100.00;102480.06;4966675;28;20126;-78
2022/11/13 01:19:36;;;;;;;44.22;23.35;;;;;;;4.83;100.00;102478.44;4954798;29;20082;-78
2022/11/13 01:22:20;;;;;;;55.67;26.38;;;;;;;4.68;100.00;102474.81;4964926;28;20057;-77
2022/11/13 01:25:04;;;;;;;43.65;23.98;;;;;;;4.51;100.00;102457.19;4957166;29;20050;-78
2022/11/13 01:27:48;;;;;;;51.70;23.95;;;;;;;4.53;100.00;102457.97;4963341;28;20057;-78
2022/11/13 01:30:32;;;;;;;43.05;21.73;;;;;;;4.43;100.00;102447.03;4960150;28;20039;-78
2022/11/13 01:33:16;;;;;;;40.53;21.13;;;;;;;4.40;100.00;102448.97;4961000;28;20066;-78
2022/11/13 01:36:06;;;;;;;42.55;23.63;;;;;;;4.33;100.00;102439.66;4954504;28;20053;-78
2022/11/13 01:38:51;;;;;;;42.25;21.38;;;;;;;4.38;100.00;102445.56;4957174;29;20073;-78
2022/11/13 01:41:35;;;;;;;42.83;22.87;;;;;;;4.34;100.00;102431.66;4956770;29;20106;-78
2022/11/13 01:44:19;;;;;;;46.65;22.52;;;;;;;4.32;100.00;102443.25;4959415;28;20278;-78
2022/11/13 01:47:04;;;;;;;39.22;21.20;;;;;;;4.29;100.00;102438.13;4975119;28;20094;-78
2022/11/13 01:49:51;;;;;;;49.47;25.35;;;;;;;4.38;100.00;102448.22;4961610;28;20038;-78
2022/11/13 01:52:39;;;;;;;50.42;25.58;;;;;;;4.51;100.00;102457.19;4967258;28;20054;-78
2022/11/13 01:55:23;;;;;;;46.55;23.08;;;;;;;4.37;100.00;102442.06;4956093;29;20041;-77
2022/11/13 01:58:09;;;;;;;40.67;22.27;;;;;;;4.26;100.00;102443.53;4980004;28;20634;-79
2022/11/13 02:00:53;;;;;;;47.50;25.45;;;;;;;4.22;100.00;102443.72;4959412;28;20050;-78
2022/11/13 02:03:37;;;;;;;38.67;21.15;;;;;;;4.12;100.00;102426.63;4963695;28;20128;-78
2022/11/13 02:06:21;;;;;;;48.38;23.83;;;;;;;4.06;100.00;102432.22;4957049;29;20131;-78
2022/11/13 02:09:06;;;;;;;48.80;23.75;;;;;;;4.00;100.00;102433.41;4970249;28;20108;-78
2022/11/13 02:11:52;;;;;;;46.42;23.30;;;;;;;3.92;100.00;102429.44;4955833;28;20078;-77
2022/11/13 02:14:40;;;;;;;48.63;23.75;;;;;;;3.93;100.00;102428.50;4955474;28;20050;-78
2022/11/13 02:17:32;;;;;;;51.33;27.05;;;;;;;3.99;100.00;102425.56;4966222;28;20534;-78
2022/11/13 02:20:34;;;;;;;48.28;25.20;;;;;;;4.01;100.00;102428.97;4959190;28;20058;-78
2022/11/13 02:23:33;;;;;;;54.45;27.80;;;;;;;4.04;100.00;102427.97;4966822;28;20659;-79
2022/11/13 02:26:19;;;;;;;56.22;27.40;;;;;;;4.11;100.00;102418.78;4958936;28;20468;-79
2022/11/13 02:29:03;;;;;;;49.05;27.65;;;;;;;4.21;100.00;102427.94;4964361;28;20086;-80
2022/11/13 02:31:47;;;;;;;65.03;29.17;;;;;;;4.29;100.00;102430.19;4958972;28;20073;-78
2022/11/13 02:34:31;;;;;;;55.40;25.40;;;;;;;4.19;100.00;102420.09;4968253;28;20045;-79
2022/11/13 02:37:15;;;;;;;57.35;28.35;;;;;;;4.23;100.00;102429.56;4957497;29;20595;-78
2022/11/13 02:39:59;;;;;;;56.50;28.15;;;;;;;4.32;100.00;102430.88;4964239;28;20141;-79
2022/11/13 02:42:43;;;;;;;49.53;27.30;;;;;;;4.22;100.00;102427.84;4963653;28;20408;-79
2022/11/13 02:45:27;;;;;;;67.95;30.40;;;;;;;4.29;100.00;102425.75;4967015;28;20082;-79
2022/11/13 02:48:11;;;;;;;63.78;30.88;;;;;;;4.50;100.00;102429.03;4968802;28;20273;-79
2022/11/13 02:50:55;;;;;;;57.30;28.35;;;;;;;4.46;100.00;102419.56;4977495;28;20119;-79
2022/11/13 02:53:39;;;;;;;65.85;28.77;;;;;;;4.56;100.00;102428.69;4977184;28;20562;-78
2022/11/13 02:56:23;;;;;;;67.57;31.25;;;;;;;4.75;100.00;102435.66;4965871;28;20042;-78
2022/11/13 02:59:07;;;;;;;65.85;31.73;;;;;;;4.79;100.00;102439.84;4978672;28;20059;-78
2022/11/13 03:01:51;;;;;;;66.00;30.73;;;;;;;4.78;100.00;102435.50;4964941;28;20139;-78
2022/11/13 03:04:35;;;;;;;73.90;33.08;;;;;;;4.95;100.00;102431.94;4966725;28;20469;-79
2022/11/13 03:07:19;;;;;;;75.85;35.75;;;;;;;5.13;100.00;102424.72;4956957;28;20082;-79
2022/11/13 03:10:03;;;;;;;70.47;32.20;;;;;;;5.05;100.00;102433.09;4961831;28;20174;-78
2022/11/13 03:12:47;;;;;;;70.20;32.63;;;;;;;4.91;100.00;102430.38;4976908;28;20452;-78
2022/11/13 03:15:33;;;;;;;72.82;32.20;;;;;;;4.88;100.00;102423.47;4964745;28;20053;-78
2022/11/13 03:18:17;;;;;;;85.75;35.17;;;;;;;5.01;100.00;102429.78;4965910;28;20109;-78
2022/11/13 03:21:06;;;;;;;89.85;36.20;;;;;;;5.10;100.00;102430.22;4974822;28;20053;-79
2022/11/13 03:23:53;;;;;;;84.72;37.03;;;;;;;5.15;100.00;102426.38;4962801;28;20186;-78
2022/11/13 03:26:37;;;;;;;86.47;38.38;;;;;;;5.28;100.00;102437.13;4962743;28;20447;-78
2022/11/13 03:29:21;;;;;;;81.05;33.88;;;;;;;5.30;100.00;102427.31;4963752;28;20053;-78
2022/11/13 03:32:05;;;;;;;83.25;37.22;;;;;;;5.34;100.00;102420.91;4976516;28;20046;-78
2022/11/13 03:34:49;;;;;;;86.95;35.90;;;;;;;5.36;100.00;102416.38;4959673;28;20391;-78
2022/11/13 03:37:33;;;;;;;86.00;35.80;;;;;;;5.36;100.00;102424.31;4961391;28;20045;-78
2022/11/13 03:40:17;;;;;;;81.10;35.08;;;;;;;5.36;100.00;102426.97;4966202;28;20050;-78
2022/11/13 03:43:01;;;;;;;89.13;36.03;;;;;;;5.31;100.00;102418.41;4960502;28;20074;-78
2022/11/13 03:45:46;;;;;;;78.70;35.53;;;;;;;5.25;100.00;102413.47;4962684;28;20135;-79
2022/11/13 03:48:30;;;;;;;75.15;34.25;;;;;;;5.23;100.00;102404.75;4955850;28;20432;-78
2022/11/13 03:51:14;;;;;;;84.20;35.80;;;;;;;5.09;100.00;102397.59;4963444;28;20046;-79
2022/11/13 03:53:59;;;;;;;69.40;32.33;;;;;;;5.01;100.00;102402.44;4971998;28;20054;-78
2022/11/13 03:56:43;;;;;;;72.40;31.15;;;;;;;4.96;100.00;102397.41;4961467;28;20078;-78
2022/11/13 03:59:27;;;;;;;82.93;33.80;;;;;;;4.95;100.00;102393.06;4955102;28;20507;-78
2022/11/13 04:02:11;;;;;;;82.43;33.10;;;;;;;5.02;100.00;102391.78;4975042;28;20568;-79
2022/11/13 04:04:55;;;;;;;70.78;31.63;;;;;;;4.89;100.00;102389.91;4962082;28;20054;-78
2022/11/13 04:07:39;;;;;;;67.05;30.30;;;;;;;4.78;100.00;102388.72;4960954;28;20063;-78
2022/11/13 04:10:23;;;;;;;63.28;28.75;;;;;;;4.70;100.00;102390.91;4964327;28;20049;-78
2022/11/13 04:13:08;;;;;;;70.85;29.13;;;;;;;4.72;100.00;102383.75;4966788;28;20066;-79
2022/11/13 04:15:52;;;;;;;75.15;30.95;;;;;;;4.68;100.00;102390.16;4973990;28;20102;-79
2022/11/13 04:18:36;;;;;;;70.18;31.95;;;;;;;4.77;100.00;102383.50;4965141;28;20084;-78
2022/11/13 04:21:20;;;;;;;89.20;37.08;;;;;;;4.93;100.00;102388.81;4961889;28;20078;-78
2022/11/13 04:24:04;;;;;;;83.70;38.53;;;;;;;4.99;100.00;102377.88;4976056;28;20111;-79
2022/11/13 04:26:48;;;;;;;81.45;39.20;;;;;;;5.18;100.00;102391.78;4961050;28;20082;-78
2022/11/13 04:29:32;;;;;;;89.88;38.17;;;;;;;5.23;100.00;102394.16;4965469;28;20407;-78
2022/11/13 04:32:16;;;;;;;96.85;39.10;;;;;;;5.36;100.00;102379.28;4963294;28;20042;-79
2022/11/13 04:35:00;;;;;;;90.32;38.60;;;;;;;5.38;100.00;102384.47;4973975;28;20113;-78
2022/11/13 04:37:44;;;;;;;83.93;40.13;;;;;;;5.43;100.00;102385.06;4962138;28;20089;-78
2022/11/13 04:40:28;;;;;;;80.47;37.17;;;;;;;5.41;100.00;102384.31;4953883;28;20046;-78
2022/11/13 04:43:12;;;;;;;84.15;37.45;;;;;;;5.42;100.00;102384.22;4962043;28;20049;-78
2022/11/13 04:45:56;;;;;;;78.10;37.88;;;;;;;5.37;100.00;102375.69;4957910;28;20053;-78
2022/11/13 04:48:40;;;;;;;83.35;39.55;;;;;;;5.38;100.00;102373.88;4962026;28;20098;-78
2022/11/13 04:51:24;;;;;;;83.32;37.22;;;;;;;5.36;100.00;102374.00;4963279;28;20630;-78
2022/11/13 04:54:08;;;;;;;81.03;37.67;;;;;;;5.36;100.00;102358.09;4977451;28;20109;-78
2022/11/13 04:56:52;;;;;;;82.75;36.47;;;;;;;5.35;100.00;102360.81;4972555;28;20046;-78
2022/11/13 04:59:36;;;;;;;76.40;34.95;;;;;;;5.37;100.00;102374.84;4963879;28;20478;-78
2022/11/13 05:02:20;;;;;;;74.50;34.55;;;;;;;5.29;100.00;102369.97;4961118;28;20049;-78
2022/11/13 05:05:05;;;;;;;81.13;37.08;;;;;;;5.36;100.00;102366.03;4962370;28;20053;-79
2022/11/13 05:07:49;;;;;;;81.68;35.35;;;;;;;5.23;100.00;102359.75;4971610;28;20055;-78
2022/11/13 05:10:33;;;;;;;79.65;36.60;;;;;;;5.21;100.00;102354.53;4955027;28;20098;-78
2022/11/13 05:13:17;;;;;;;77.38;36.08;;;;;;;5.17;100.00;102352.13;4964784;28;20048;-78
2022/11/13 05:16:04;;;;;;;72.88;34.83;;;;;;;5.16;100.00;102347.78;4954863;28;20085;-78
2022/11/13 05:18:48;;;;;;;77.97;34.53;;;;;;;5.18;100.00;102337.97;4971312;28;20046;-78
2022/11/13 05:21:34;;;;;;;66.57;31.52;;;;;;;5.22;100.00;102343.00;4962958;28;20058;-78
2022/11/13 05:24:18;;;;;;;60.92;30.98;;;;;;;5.29;100.00;102338.19;4969823;28;20522;-78
2022/11/13 05:27:02;;;;;;;74.15;32.90;;;;;;;5.23;100.00;102334.09;4948505;28;20109;-78
2022/11/13 05:29:46;;;;;;;62.08;31.55;;;;;;;5.25;100.00;102332.22;4959924;28;20054;-79
2022/11/13 05:32:31;;;;;;;67.07;31.20;;;;;;;5.25;100.00;102334.88;4948076;29;20046;-78
2022/11/13 05:35:15;;;;;;;70.17;32.17;;;;;;;5.24;100.00;102332.31;4961167;28;20130;-78
2022/11/13 05:38:00;;;;;;;59.85;29.38;;;;;;;5.19;100.00;102327.28;4958557;28;20270;-78
2022/11/13 05:40:44;;;;;;;60.00;29.83;;;;;;;5.31;100.00;102336.31;4953091;28;20075;-78
2022/11/13 05:43:28;;;;;;;69.97;30.92;;;;;;;5.22;100.00;102336.84;4957782;28;20054;-78
2022/11/13 05:46:18;;;;;;;69.43;31.23;;;;;;;5.23;100.00;102338.56;4974180;28;20125;-78
2022/11/13 05:49:03;;;;;;;63.00;28.13;;;;;;;5.12;100.00;102333.03;4960668;28;20066;-78
2022/11/13 05:51:47;;;;;;;55.00;26.27;;;;;;;5.07;100.00;102330.63;4976509;28;20101;-79
2022/11/13 05:54:31;;;;;;;63.22;28.33;;;;;;;4.98;100.00;102328.50;4964433;28;20054;-79
2022/11/13 05:57:15;;;;;;;58.58;27.52;;;;;;;4.86;100.00;102314.19;4965743;28;20050;-78
2022/11/13 05:59:59;;;;;;;70.40;31.10;;;;;;;4.81;100.00;102318.88;4953027;28;20133;-79
2022/11/13 06:02:43;;;;;;;67.00;29.25;;;;;;;4.79;100.00;102315.47;4968319;28;20108;-78
2022/11/13 06:05:27;;;;;;;72.32;29.02;;;;;;;4.87;100.00;102323.84;4961314;28;20057;-78
2022/11/13 06:08:11;;;;;;;58.03;28.00;;;;;;;4.86;100.00;102317.69;4959764;28;20085;-78
2022/11/13 06:11:00;;;;;;;60.08;29.17;;;;;;;4.96;100.00;102309.22;4953991;28;20054;-78
2022/11/13 06:13:44;;;;;;;75.85;31.30;;;;;;;4.90;100.00;102307.78;4959661;28;20322;-77
2022/11/13 06:16:34;;;;;;;72.82;30.05;;;;;;;4.94;100.00;102314.63;4961656;28;20592;-78
2022/11/13 06:19:18;;;;;;;77.72;31.60;;;;;;;4.83;100.00;102309.06;4961441;28;20113;-79
2022/11/13 06:22:02;;;;;;;77.68;32.03;;;;;;;4.82;100.00;102308.22;4961947;28;20058;-78
2022/11/13 06:24:46;;;;;;;78.68;32.78;;;;;;;4.83;100.00;102311.72;4962904;28;20486;-78
2022/11/13 06:27:29;;;;;;;75.05;31.60;;;;;;;4.81;100.00;102310.94;4961806;28;20101;-78
2022/11/13 06:30:14;;;;;;;75.13;34.05;;;;;;;4.84;100.00;102300.19;4962687;28;20555;-78
2022/11/13 06:32:57;;;;;;;80.47;33.28;;;;;;;4.95;100.00;102313.66;4949890;28;20111;-78
2022/11/13 06:35:42;;;;;;;84.97;35.40;;;;;;;4.90;100.00;102301.66;4958179;28;20094;-78
2022/11/13 06:38:25;;;;;;;82.80;35.47;;;;;;;4.94;100.00;102308.44;4957357;28;20102;-78
2022/11/13 06:41:12;;;;;;;82.10;34.53;;;;;;;4.95;100.00;102318.97;4955853;29;20764;-77
2022/11/13 06:43:58;;;;;;;82.57;34.55;;;;;;;4.96;100.00;102328.59;4968543;28;20046;-78
2022/11/13 06:46:41;;;;;;;85.20;32.55;;;;;;;4.97;100.00;102317.09;4958875;28;20049;-78
2022/11/13 06:49:25;;;;;;;73.03;33.28;;;;;;;4.99;100.00;102327.59;4957794;29;20050;-79
2022/11/13 06:52:09;;;;;;;79.30;34.60;;;;;;;4.95;100.00;102316.31;4958730;28;20907;-78
2022/11/13 06:54:53;;;;;;;87.70;35.05;;;;;;;4.95;100.00;102313.66;4974502;28;20074;-77
2022/11/13 06:57:38;;;;;;;83.35;33.58;;;;;;;5.04;100.00;102328.19;4956773;28;20083;-78
2022/11/13 07:00:21;;;;;;;82.55;34.30;;;;;;;5.04;100.00;102330.81;4957169;28;20643;-78
2022/11/13 07:03:05;;;;;;;81.03;33.60;;;;;;;5.02;100.00;102322.97;4963786;28;20409;-79
2022/11/13 07:05:49;;;;;;;85.05;35.03;;;;;;;5.11;100.00;102329.53;4962689;28;20041;-78
2022/11/13 07:08:34;;;;;;;78.00;34.03;;;;;;;5.15;100.00;102324.88;4955630;29;20583;-77
2022/11/13 07:11:20;;;;;;;79.80;34.80;;;;;;;5.25;100.00;102316.34;4962003;28;20416;-80
2022/11/13 07:14:04;;;;;;;76.20;32.00;;;;;;;5.28;100.00;102334.69;4995687;23;20418;-88
2022/11/13 07:16:48;;;;;;;72.72;30.15;;;;;;;5.32;100.00;102318.63;5031796;23;20148;-74
2022/11/13 07:19:32;;;;;;;72.18;32.38;;;;;;;5.46;100.00;102322.16;5024657;28;20041;-73
2022/11/13 07:22:16;;;;;;;68.13;29.70;;;;;;;5.47;100.00;102323.00;5011662;28;20407;-74
2022/11/13 07:24:59;;;;;;;69.68;31.35;;;;;;;5.53;100.00;102319.16;5008519;28;20045;-74
2022/11/13 07:27:44;;;;;;;64.55;29.65;;;;;;;5.71;100.00;102321.56;5007086;28;20096;-74
2022/11/13 07:30:28;;;;;;;73.50;30.73;;;;;;;5.78;100.00;102322.03;5000515;28;20052;-74
2022/11/13 07:33:12;;;;;;;64.30;32.42;;;;;;;6.02;100.00;102325.03;5008193;28;20091;-74
2022/11/13 07:35:56;;;;;;;68.65;28.63;;;;;;;6.02;100.00;102317.06;5007959;28;20557;-74
2022/11/13 07:38:40;;;;;;;56.47;28.67;;;;;;;6.19;100.00;102321.34;5006061;28;20104;-74
2022/11/13 07:41:24;;;;;;;55.63;27.98;;;;;;;6.30;100.00;102321.53;5000064;28;20045;-74
2022/11/13 07:44:08;;;;;;;49.38;25.42;;;;;;;6.39;100.00;102314.78;5002997;28;20662;-74
2022/11/13 07:46:52;;;;;;;50.80;25.13;;;;;;;6.42;100.00;102314.59;5003013;28;20077;-74
2022/11/13 07:49:36;;;;;;;44.15;21.98;;;;;;;6.34;100.00;102306.25;4999239;28;20558;-74
2022/11/13 07:52:20;;;;;;;49.25;23.50;;;;;;;6.13;100.00;102301.38;5001821;28;20101;-73
2022/11/13 07:55:04;;;;;;;56.90;23.20;;;;;;;6.09;100.00;102296.34;4995579;28;20045;-74
2022/11/13 07:57:48;;;;;;;53.65;26.42;;;;;;;6.48;100.00;102308.03;5001553;28;20403;-73
2022/11/13 08:00:34;;;;;;;48.95;23.98;;;;;;;6.38;100.00;102304.25;5001563;28;20072;-74
2022/11/13 08:03:18;;;;;;;53.38;24.25;;;;;;;6.45;100.00;102300.28;5004535;28;20579;-73
2022/11/13 08:06:05;;;;;;;45.75;24.15;;;;;;;6.46;100.00;102302.84;4994695;28;20048;-73
2022/11/13 08:08:49;;;;;;;51.85;24.77;;;;;;;6.49;100.00;102296.47;5005788;28;20041;-74
2022/11/13 08:11:34;;;;;;;45.30;24.13;;;;;;;6.65;100.00;102297.19;5006412;28;20091;-73
2022/11/13 08:14:18;;;;;;;45.80;23.85;;;;;;;6.48;100.00;102290.28;5007390;28;20072;-74
2022/11/13 08:17:02;;;;;;;49.55;24.27;;;;;;;6.30;100.00;102302.09;4992582;28;20418;-74
2022/11/13 08:19:46;;;;;;;59.03;25.92;;;;;;;6.15;100.00;102279.19;5004667;28;20126;-73
2022/11/13 08:22:30;;;;;;;50.92;25.35;;;;;;;6.23;100.00;102285.72;5000439;28;20069;-74
2022/11/13 08:25:14;;;;;;;51.05;25.88;;;;;;;6.55;100.00;102291.63;4983024;28;20602;-74
2022/11/13 08:27:59;;;;;;;48.25;24.48;;;;;;;6.39;100.00;102290.03;4999534;28;20121;-74
2022/11/13 08:30:44;;;;;;;52.10;27.10;;;;;;;6.20;100.00;102283.25;4998451;28;20057;-74
2022/11/13 08:33:28;;;;;;;50.15;25.10;;;;;;;6.23;100.00;102293.69;4998378;28;20502;-74
2022/11/13 08:36:13;;;;;;;55.63;28.05;;;;;;;6.25;100.00;102294.44;4998525;28;20644;-74
2022/11/13 08:38:57;;;;;;;60.22;26.58;;;;;;;6.32;100.00;102300.19;4998960;28;20112;-73
2022/11/13 08:41:41;;;;;;;52.50;25.90;;;;;;;6.39;100.00;102309.47;5001761;28;20101;-74
2022/11/13 08:44:25;;;;;;;63.33;27.92;;;;;;;6.42;100.00;102308.44;5001412;28;20180;-74
2022/11/13 08:47:09;;;;;;;51.33;23.05;;;;;;;6.49;100.00;102307.09;5006825;28;20998;-74
2022/11/13 08:49:54;;;;;;;58.40;27.00;;;;;;;6.40;100.00;102302.38;5004973;28;20052;-74
2022/11/13 08:52:38;;;;;;;61.63;27.77;;;;;;;6.28;100.00;102312.81;5005159;28;20108;-74
2022/11/13 08:55:22;;;;;;;55.55;26.63;;;;;;;6.30;100.00;102310.91;5006619;28;20040;-74
2022/11/13 08:58:07;;;;;;;62.78;28.88;;;;;;;6.46;100.00;102320.53;5004210;28;20122;-74
2022/11/13 09:00:51;;;;;;;70.53;30.53;;;;;;;6.39;100.00;102322.75;5004565;28;20084;-74
2022/11/13 09:03:35;;;;;;;70.88;27.80;;;;;;;6.20;100.00;102315.06;4995690;28;20331;-74
2022/11/13 09:06:19;;;;;;;69.85;27.73;;;;;;;6.26;100.00;102321.81;4997813;28;20049;-74
2022/11/13 09:09:05;;;;;;;64.78;29.63;;;;;;;6.12;100.00;102312.06;4999290;28;20036;-74
2022/11/13 09:11:49;;;;;;;71.28;30.63;;;;;;;6.30;100.00;102324.16;4997829;28;20049;-74
2022/11/13 09:14:34;;;;;;;65.15;28.30;;;;;;;6.21;100.00;102329.19;5005977;28;20048;-74
2022/11/13 09:17:19;;;;;;;68.85;29.23;;;;;;;6.15;100.00;102325.13;4993463;28;20570;-74
2022/11/13 09:20:06;;;;;;;60.05;26.20;;;;;;;6.15;100.00;102330.41;4997328;28;20041;-74
2022/11/13 09:22:59;;;;;;;70.18;26.13;;;;;;;6.04;100.00;102336.41;5002638;28;20084;-74
2022/11/13 09:25:44;;;;;;;71.88;30.98;;;;;;;5.92;100.00;102330.03;4995852;28;20040;-74
2022/11/13 09:28:28;;;;;;;82.20;29.55;;;;;;;5.84;100.00;102334.91;4998801;28;20040;-73
2022/11/13 09:31:12;;;;;;;68.00;26.58;;;;;;;6.16;100.00;102353.34;4997581;28;20049;-73
2022/11/13 09:33:56;;;;;;;73.93;28.30;;;;;;;5.86;100.00;102340.13;5004620;28;20568;-73
2022/11/13 09:36:40;;;;;;;76.97;27.95;;;;;;;5.87;100.00;102332.06;5005273;28;20065;-73
2022/11/13 09:39:24;;;;;;;91.78;29.45;;;;;;;5.76;100.00;102333.66;4996694;28;20057;-73
2022/11/13 09:42:23;;;;;;;71.50;29.05;;;;;;;5.88;100.00;102332.94;5004905;28;20099;-73
2022/11/13 09:45:12;;;;;;;85.07;32.67;;;;;;;5.89;100.00;102346.09;5004075;28;20091;-73
2022/11/13 09:48:25;;;;;;;75.07;29.52;;;;;;;5.87;100.00;102334.72;5006055;28;20563;-73
2022/11/13 09:51:16;;;;;;;77.32;30.58;;;;;;;5.98;100.00;102344.72;5005960;28;20049;-73
2022/11/13 09:54:04;;;;;;;90.25;32.05;;;;;;;5.97;100.00;102336.84;5001462;28;20111;-73
2022/11/13 09:57:09;;;;;;;93.75;33.47;;;;;;;5.94;100.00;102337.88;5000837;28;20537;-73
2022/11/13 10:00:14;;;;;;;99.60;32.42;;;;;;;5.95;100.00;102338.72;5005049;28;20100;-73
2022/11/13 10:03:14;;;;;;;;;;;;;;;6.08;100.00;102339.69;5006414;28;20044;-73
2022/11/13 10:06:26;;;;;;;73.10;28.55;;;;;;;6.02;100.00;102342.75;4997018;28;19932;-73
2022/11/13 10:09:38;;;;;;;87.28;30.85;;;;;;;6.19;100.00;102352.31;4999877;28;20045;-73
2022/11/13 10:12:22;;;;;;;90.20;30.13;;;;;;;5.93;100.00;102342.31;4988464;28;20049;-73
2022/11/13 10:15:09;;;;;;;79.72;30.33;;;;;;;5.97;100.00;102339.50;4999032;28;20057;-73
2022/11/13 10:18:18;;;;;;;80.00;28.83;;;;;;;6.05;100.00;102346.03;5003362;28;20045;-73
2022/11/13 10:21:13;;;;;;;88.55;31.10;;;;;;;6.07;100.00;102351.25;5003900;28;20068;-74
2022/11/13 10:24:02;;;;;;;;;;;;;;;6.04;100.00;102346.13;4990364;28;20041;-74
2022/11/13 10:26:46;;;;;;;101.15;31.02;;;;;;;6.00;100.00;102331.38;4996588;28;19921;-75
2022/11/13 10:29:32;;;;;;;107.50;32.65;;;;;;;5.93;100.00;102331.72;4994983;28;20044;-73
2022/11/13 10:32:22;;;;;;;109.93;31.90;;;;;;;6.01;100.00;102338.38;4978827;28;20488;-73
2022/11/13 10:35:06;;;;;;;133.07;36.22;;;;;;;5.92;100.00;102337.97;4990818;28;20056;-73
2022/11/13 10:38:03;;;;;;;106.10;34.97;;;;;;;6.09;100.00;102336.13;4999383;28;20088;-73
2022/11/13 10:40:47;;;;;;;124.18;34.70;;;;;;;6.10;100.00;102343.13;4992546;28;20045;-73
2022/11/13 10:43:33;;;;;;;108.75;34.35;;;;;;;6.21;100.00;102338.00;4980358;28;20049;-73
2022/11/13 10:46:20;;;;;;;103.95;36.30;;;;;;;6.33;100.00;102334.56;4990364;28;20049;-73
2022/11/13 10:49:18;;;;;;;126.93;38.30;;;;;;;6.45;100.00;102340.91;5004788;28;20049;-73
2022/11/13 10:52:03;;;;;;;113.60;36.25;;;;;;;6.38;100.00;102330.78;4993663;28;20048;-73
2022/11/13 10:54:47;;;;;;;117.22;34.33;;;;;;;6.40;100.00;102328.91;5005514;28;20156;-73
2022/11/13 10:57:33;;;;;;;113.68;32.85;;;;;;;6.21;100.00;102314.13;5002456;28;20049;-73
2022/11/13 11:00:23;;;;;;;105.30;32.60;;;;;;;6.31;100.00;102317.06;5007265;28;20406;-74
2022/11/13 11:03:12;;;;;;;113.47;33.72;;;;;;;6.26;100.00;102314.69;4996257;28;20117;-73
2022/11/13 11:06:01;;;;;;;89.03;31.42;;;;;;;6.34;100.00;102319.50;5007631;28;20049;-73
2022/11/13 11:08:45;;;;;;;153.50;37.30;;;;;;;6.24;100.00;102321.88;5008927;28;20108;-74
2022/11/13 11:14:39;;;;;;;105.88;33.13;;;;;;;6.34;100.00;102325.69;4999010;28;20048;-73
2022/11/13 11:17:50;;;;;;;110.82;34.47;;;;;;;6.43;100.00;102328.69;4999451;28;20077;-73
2022/11/13 11:20:43;;;;;;;165.02;42.25;;;;;;;6.31;100.00;102307.28;5001691;28;20904;-73
2022/11/13 11:23:43;;;;;;;116.65;38.45;;;;;;;6.49;100.00;102323.00;5001131;28;20668;-74
2022/11/13 11:26:46;;;;;;;117.78;37.80;;;;;;;6.54;100.00;102320.91;4996054;28;20115;-74
2022/11/13 11:29:53;;;;;;;139.77;39.80;;;;;;;6.53;100.00;102306.81;5001605;28;20521;-74
2022/11/13 11:32:59;;;;;;;146.20;44.60;;;;;;;6.45;100.00;102309.06;5002318;28;20141;-74
2022/11/13 11:35:59;;;;;;;141.23;42.17;;;;;;;6.60;100.00;102309.03;4996443;28;20049;-74
2022/11/13 11:39:08;;;;;;;135.70;41.50;;;;;;;6.73;100.00;102304.66;5002747;28;20084;-73
2022/11/13 11:42:13;;;;;;;121.72;39.58;;;;;;;6.72;100.00;102308.28;5007329;28;20044;-74
2022/11/13 11:45:07;;;;;;;121.50;39.10;;;;;;;6.61;100.00;102301.00;5001271;28;20041;-73
2022/11/13 11:47:52;;;;;;;122.20;40.03;;;;;;;6.54;100.00;102291.72;5007644;28;20419;-74
2022/11/13 11:50:49;;;;;;;113.85;40.90;;;;;;;6.56;100.00;102292.47;4995373;28;20072;-74
2022/11/13 11:54:07;;;;;;;126.15;42.95;;;;;;;6.54;100.00;102297.88;5001440;28;20053;-74
2022/11/13 11:56:58;;;;;;;102.32;38.50;;;;;;;6.55;100.00;102286.34;4994025;28;20065;-73
2022/11/13 12:00:00;;;;;;;92.07;35.47;;;;;;;6.59;100.00;102292.28;4998078;28;20045;-74
2022/11/13 12:02:55;;;;;;;100.35;39.40;;;;;;;6.69;100.00;102290.72;5004569;28;20049;-74
2022/11/13 12:06:01;;;;;;;91.65;36.47;;;;;;;6.53;100.00;102277.63;5000587;28;20992;-73
2022/11/13 12:09:03;;;;;;;96.38;38.35;;;;;;;6.68;100.00;102280.22;5002071;28;20101;-73
2022/11/13 12:11:56;;;;;;;94.50;40.85;;;;;;;6.76;100.00;102269.94;5007945;28;20103;-73
2022/11/13 12:15:09;;;;;;;66.72;32.17;;;;;;;6.71;100.00;102267.59;5003666;28;20053;-73
2022/11/13 12:18:24;;;;;;;72.72;35.35;;;;;;;6.85;100.00;102253.41;5000991;28;20129;-73
2022/11/13 12:21:11;;;;;;;;;;;;;;;6.84;100.00;102248.22;4995416;28;20049;-73
2022/11/13 12:24:02;;;;;;;122.75;60.80;;;;;;;6.94;100.00;102231.56;5004298;28;19940;-73
2022/11/13 12:27:02;;;;;;;58.60;28.98;;;;;;;6.88;100.00;102216.06;4994783;28;20045;-73
2022/11/13 12:30:10;;;;;;;57.13;29.90;;;;;;;7.09;100.00;102208.41;5001839;28;20625;-73
2022/11/13 12:33:00;;;;;;;76.35;42.17;;;;;;;7.09;100.00;102192.47;5007528;28;20060;-73
2022/11/13 12:35:48;;;;;;;53.03;27.83;;;;;;;7.14;100.00;102187.75;4998830;28;20053;-72
2022/11/13 12:38:40;;;;;;;50.20;27.55;;;;;;;7.30;100.00;102178.69;5005601;28;20045;-73
2022/11/13 12:41:27;;;;;;;45.47;25.38;;;;;;;7.26;100.00;102172.75;5005777;28;20148;-73